createdAt,value
2022-10-17T00:00:55.247Z,8.67
2022-10-17T00:03:21.743Z,8.53
2022-10-17T00:05:49.191Z,8.84
2022-10-17T00:08:17.717Z,8.48
2022-10-17T00:10:44.752Z,8.53
2022-10-17T00:13:12.128Z,8.51
2022-10-17T00:15:42.699Z,8.33
2022-10-17T00:18:13.266Z,8.28
2022-10-17T00:20:39.750Z,8.26
2022-10-17T00:23:06.150Z,8.31
2022-10-17T00:25:32.848Z,8.30
2022-10-17T00:27:59.263Z,8.36
2022-10-17T00:30:25.704Z,8.12
2022-10-17T00:32:53.141Z,8.07
2022-10-17T00:35:19.625Z,8.18
2022-10-17T00:37:46.130Z,8.12
2022-10-17T00:40:12.639Z,8.19
2022-10-17T00:42:39.080Z,7.92
2022-10-17T00:45:18.818Z,8.13
2022-10-17T00:47:50.903Z,8.11
2022-10-17T00:50:19.414Z,8.11
2022-10-17T00:52:46.853Z,7.90
2022-10-17T00:55:21.695Z,8.04
2022-10-17T00:57:48.554Z,7.82
2022-10-17T01:00:16.594Z,7.92
2022-10-17T01:02:43.519Z,7.91
2022-10-17T01:05:10.696Z,7.92
2022-10-17T01:07:39.503Z,7.78
2022-10-17T01:10:07.516Z,7.69
2022-10-17T01:12:43.174Z,7.84
2022-10-17T01:15:26.092Z,7.72
2022-10-17T01:18:01.514Z,7.69
2022-10-17T01:20:43.126Z,7.70
2022-10-17T01:23:48.844Z,7.66
2022-10-17T01:26:49.260Z,7.72
2022-10-17T01:29:31.684Z,7.78
2022-10-17T01:32:05.172Z,7.69
2022-10-17T01:35:07.750Z,7.65
2022-10-17T01:37:47.569Z,7.19
2022-10-17T01:40:41.752Z,7.42
2022-10-17T01:43:16.913Z,7.25
2022-10-17T01:45:50.647Z,7.36
2022-10-17T01:48:26.476Z,7.46
2022-10-17T01:51:01.466Z,7.32
2022-10-17T01:53:33.160Z,7.44
2022-10-17T01:56:02.749Z,7.42
2022-10-17T01:58:34.008Z,7.31
2022-10-17T02:01:05.611Z,7.33
2022-10-17T02:03:34.490Z,7.16
2022-10-17T02:06:01.807Z,7.14
2022-10-17T02:08:40.330Z,7.27
2022-10-17T02:11:27.624Z,7.32
2022-10-17T02:14:00.058Z,7.37
2022-10-17T02:16:35.564Z,7.37
2022-10-17T02:19:31.416Z,7.25
2022-10-17T02:22:32.406Z,7.18
2022-10-17T02:25:02.551Z,7.17
2022-10-17T02:27:34.891Z,7.14
2022-10-17T02:30:05.413Z,7.07
2022-10-17T02:33:01.892Z,7.17
2022-10-17T02:35:34.253Z,7.02
2022-10-17T02:38:02.375Z,6.99
2022-10-17T02:40:30.345Z,7.06
2022-10-17T02:42:59.346Z,6.78
2022-10-17T02:45:28.315Z,6.83
2022-10-17T02:48:05.720Z,6.89
2022-10-17T02:50:41.395Z,6.83
2022-10-17T02:53:17.070Z,6.73
2022-10-17T02:55:51.332Z,6.87
2022-10-17T02:58:25.614Z,6.99
2022-10-17T03:00:52.648Z,6.80
2022-10-17T03:03:31.329Z,6.63
2022-10-17T03:05:57.940Z,6.86
2022-10-17T03:08:24.828Z,6.72
2022-10-17T03:10:51.494Z,6.84
2022-10-17T03:13:18.894Z,6.82
2022-10-17T03:15:45.441Z,6.87
2022-10-17T03:18:12.165Z,6.94
2022-10-17T03:20:38.725Z,6.59
2022-10-17T03:23:05.246Z,6.89
2022-10-17T03:25:32.009Z,6.70
2022-10-17T03:28:00.428Z,6.69
2022-10-17T03:30:27.471Z,6.64
2022-10-17T03:32:54.074Z,6.50
2022-10-17T03:35:20.544Z,6.59
2022-10-17T03:37:46.954Z,6.66
2022-10-17T03:40:13.392Z,6.81
2022-10-17T03:42:40.435Z,6.67
2022-10-17T03:45:07.167Z,6.44
2022-10-17T03:47:33.573Z,6.66
2022-10-17T03:50:00.084Z,6.62
2022-10-17T03:52:26.511Z,6.42
2022-10-17T03:54:53.008Z,6.38
2022-10-17T03:57:19.587Z,6.34
2022-10-17T03:59:46.026Z,6.41
2022-10-17T04:02:12.505Z,6.28
2022-10-17T04:04:38.941Z,6.22
2022-10-17T04:07:05.380Z,6.35
2022-10-17T04:09:31.904Z,6.28
2022-10-17T04:11:58.287Z,6.39
2022-10-17T04:14:25.837Z,6.32
2022-10-17T04:16:53.561Z,6.28
2022-10-17T04:19:20.152Z,6.27
2022-10-17T04:21:48.261Z,6.34
2022-10-17T04:24:15.092Z,5.96
2022-10-17T04:26:41.577Z,6.00
2022-10-17T04:29:08.042Z,6.19
2022-10-17T04:31:34.545Z,6.08
2022-10-17T04:34:00.979Z,5.97
2022-10-17T04:36:31.688Z,6.14
2022-10-17T04:38:58.087Z,6.23
2022-10-17T04:41:25.829Z,6.22
2022-10-17T04:43:52.236Z,6.43
2022-10-17T04:46:18.661Z,6.23
2022-10-17T04:48:45.221Z,6.16
2022-10-17T04:51:14.344Z,6.27
2022-10-17T04:53:42.521Z,6.37
2022-10-17T04:56:13.652Z,6.36
2022-10-17T04:58:41.142Z,6.27
2022-10-17T05:01:10.312Z,6.16
2022-10-17T05:03:37.128Z,6.11
2022-10-17T05:06:18.975Z,6.39
2022-10-17T05:08:46.192Z,6.26
2022-10-17T05:11:29.268Z,6.01
2022-10-17T05:13:58.060Z,6.19
2022-10-17T05:16:25.785Z,6.17
2022-10-17T05:18:54.452Z,6.12
2022-10-17T05:21:22.169Z,6.11
2022-10-17T05:23:48.680Z,6.08
2022-10-17T05:26:15.502Z,5.77
2022-10-17T05:28:42.001Z,5.90
2022-10-17T05:31:11.006Z,6.12
2022-10-17T05:33:38.827Z,6.03
2022-10-17T05:36:06.589Z,5.87
2022-10-17T05:38:33.151Z,5.91
2022-10-17T05:41:00.802Z,6.04
2022-10-17T05:43:28.027Z,5.92
2022-10-17T05:45:56.123Z,6.16
2022-10-17T05:48:23.864Z,5.90
2022-10-17T05:50:50.286Z,6.05
2022-10-17T05:53:17.067Z,6.15
2022-10-17T05:55:43.474Z,5.75
2022-10-17T05:58:17.599Z,6.02
2022-10-17T06:00:48.738Z,5.98
2022-10-17T06:03:15.143Z,6.07
2022-10-17T06:05:41.563Z,6.04
2022-10-17T06:08:07.994Z,6.01
2022-10-17T06:10:34.400Z,5.91
2022-10-17T06:13:00.808Z,6.16
2022-10-17T06:15:27.297Z,6.10
2022-10-17T06:17:53.700Z,6.18
2022-10-17T06:20:20.158Z,6.19
2022-10-17T06:22:46.579Z,6.17
2022-10-17T06:25:13.131Z,6.36
2022-10-17T06:27:39.626Z,6.43
2022-10-17T06:30:06.655Z,6.51
2022-10-17T06:32:33.085Z,6.64
2022-10-17T06:34:59.754Z,6.72
2022-10-17T06:37:26.524Z,6.78
2022-10-17T06:39:53.610Z,6.77
2022-10-17T06:42:20.021Z,6.92
2022-10-17T06:44:46.422Z,6.99
2022-10-17T06:47:15.407Z,7.12
2022-10-17T06:49:44.401Z,7.11
2022-10-17T06:52:11.068Z,7.20
2022-10-17T06:54:37.487Z,7.47
2022-10-17T06:57:03.935Z,7.58
2022-10-17T06:59:30.330Z,7.76
2022-10-17T07:01:56.734Z,7.82
2022-10-17T07:04:23.115Z,7.88
2022-10-17T07:06:49.716Z,7.95
2022-10-17T07:09:17.036Z,8.03
2022-10-17T07:11:43.456Z,8.19
2022-10-17T07:14:09.920Z,8.26
2022-10-17T07:16:36.328Z,8.51
2022-10-17T07:19:03.092Z,8.81
2022-10-17T07:21:29.518Z,8.88
2022-10-17T07:23:55.994Z,8.74
2022-10-17T07:26:22.705Z,8.85
2022-10-17T07:28:53.394Z,9.12
2022-10-17T07:31:22.335Z,9.16
2022-10-17T07:33:49.173Z,9.43
2022-10-17T07:36:15.847Z,9.36
2022-10-17T07:38:42.289Z,9.35
2022-10-17T07:41:10.871Z,9.49
2022-10-17T07:43:37.550Z,9.45
2022-10-17T07:46:05.852Z,9.84
2022-10-17T07:48:32.573Z,10.12
2022-10-17T07:51:02.527Z,10.04
2022-10-17T07:53:29.140Z,10.38
2022-10-17T07:55:55.532Z,10.47
2022-10-17T07:58:21.972Z,10.37
2022-10-17T08:00:49.056Z,10.51
2022-10-17T08:03:15.606Z,10.73
2022-10-17T08:05:42.103Z,10.76
2022-10-17T08:08:08.921Z,10.84
2022-10-17T08:10:35.438Z,11.08
2022-10-17T08:13:01.857Z,11.34
2022-10-17T08:15:31.707Z,11.38
2022-10-17T08:17:59.344Z,11.49
2022-10-17T08:20:25.779Z,11.81
2022-10-17T08:22:53.496Z,11.84
2022-10-17T08:25:20.706Z,12.09
2022-10-17T08:27:47.264Z,11.92
2022-10-17T08:30:13.781Z,11.96
2022-10-17T08:32:40.534Z,12.11
2022-10-17T08:35:07.226Z,12.29
2022-10-17T08:37:38.608Z,12.55
2022-10-17T08:40:05.573Z,12.49
2022-10-17T08:42:59.958Z,12.69
2022-10-17T08:45:36.466Z,12.74
2022-10-17T08:48:05.894Z,12.86
2022-10-17T08:50:38.264Z,12.90
2022-10-17T08:53:28.019Z,12.91
2022-10-17T08:55:55.082Z,13.36
2022-10-17T08:58:26.246Z,13.34
2022-10-17T09:01:26.115Z,13.65
2022-10-17T09:04:26.689Z,13.93
2022-10-17T09:07:19.193Z,14.10
2022-10-17T09:10:03.645Z,14.25
2022-10-17T09:12:58.001Z,14.26
2022-10-17T09:15:50.563Z,14.49
2022-10-17T09:18:27.762Z,14.67
2022-10-17T09:21:00.306Z,14.80
2022-10-17T09:23:45.210Z,15.04
2022-10-17T09:26:12.436Z,15.17
2022-10-17T09:28:41.457Z,15.42
2022-10-17T09:31:19.959Z,15.43
2022-10-17T09:33:55.632Z,15.54
2022-10-17T09:36:29.496Z,15.67
2022-10-17T09:39:02.161Z,15.85
2022-10-17T09:41:51.565Z,16.20
2022-10-17T09:44:17.945Z,16.37
2022-10-17T09:46:58.962Z,16.47
2022-10-17T09:49:43.634Z,16.80
2022-10-17T09:52:18.066Z,17.12
2022-10-17T09:54:49.484Z,17.44
2022-10-17T09:57:18.338Z,17.65
2022-10-17T09:59:56.551Z,17.92
2022-10-17T10:02:24.691Z,18.01
2022-10-17T10:05:16.475Z,18.22
2022-10-17T10:08:00.283Z,18.29
2022-10-17T10:10:28.824Z,18.38
2022-10-17T10:13:06.506Z,18.69
2022-10-17T10:15:38.991Z,18.85
2022-10-17T10:18:25.403Z,18.96
2022-10-17T10:21:12.444Z,19.14
2022-10-17T10:23:43.047Z,19.22
2022-10-17T10:26:25.776Z,19.31
2022-10-17T10:29:19.948Z,19.51
2022-10-17T10:31:47.240Z,19.80
2022-10-17T10:34:30.078Z,19.84
2022-10-17T10:37:01.851Z,20.26
2022-10-17T10:39:43.080Z,20.23
2022-10-17T10:42:21.971Z,20.40
2022-10-17T10:44:49.683Z,20.37
2022-10-17T10:47:20.916Z,20.28
2022-10-17T10:49:50.147Z,20.75
2022-10-17T10:52:27.709Z,20.72
2022-10-17T10:55:03.538Z,21.01
2022-10-17T10:57:33.343Z,20.95
2022-10-17T11:00:19.415Z,20.94
2022-10-17T11:02:55.176Z,21.00
2022-10-17T11:05:48.002Z,21.20
2022-10-17T11:08:20.499Z,21.16
2022-10-17T11:11:13.743Z,21.31
2022-10-17T11:13:49.642Z,21.48
2022-10-17T11:16:35.711Z,21.75
2022-10-17T11:19:05.198Z,21.84
2022-10-17T11:21:47.241Z,21.85
2022-10-17T11:24:38.733Z,21.87
2022-10-17T11:27:07.123Z,22.03
2022-10-17T11:29:41.255Z,22.10
2022-10-17T11:32:16.607Z,22.40
2022-10-17T11:34:47.680Z,22.29
2022-10-17T11:37:28.703Z,22.38
2022-10-17T11:40:00.866Z,22.46
2022-10-17T11:42:40.700Z,22.51
2022-10-17T11:45:16.931Z,22.43
2022-10-17T11:47:43.238Z,22.33
2022-10-17T11:53:30.068Z,22.50
2022-10-17T11:55:59.076Z,22.62
2022-10-17T11:58:45.697Z,22.78
2022-10-17T12:01:59.843Z,22.66
2022-10-17T12:04:52.687Z,22.97
2022-10-17T12:07:48.210Z,22.61
2022-10-17T12:10:51.599Z,22.74
2022-10-17T12:13:33.226Z,22.97
2022-10-17T12:16:24.737Z,22.96
2022-10-17T12:19:06.299Z,23.09
2022-10-17T12:21:55.797Z,23.25
2022-10-17T12:24:34.948Z,22.99
2022-10-17T12:27:39.997Z,22.86
2022-10-17T12:30:16.806Z,23.25
2022-10-17T12:33:13.387Z,23.24
2022-10-17T12:35:40.824Z,23.24
2022-10-17T12:38:37.291Z,23.27
2022-10-17T12:41:05.391Z,23.16
2022-10-17T12:43:38.311Z,23.29
2022-10-17T12:46:08.447Z,23.29
2022-10-17T12:48:34.812Z,23.55
2022-10-17T12:54:14.814Z,23.22
2022-10-17T12:56:49.567Z,23.34
2022-10-17T12:59:20.702Z,23.49
2022-10-17T13:01:58.778Z,23.01
2022-10-17T13:04:36.766Z,22.97
2022-10-17T13:07:04.092Z,23.15
2022-10-17T13:09:37.564Z,23.35
2022-10-17T13:12:10.930Z,23.27
2022-10-17T13:14:40.338Z,23.19
2022-10-17T13:17:25.081Z,23.11
2022-10-17T13:19:52.735Z,23.25
2022-10-17T13:22:28.674Z,23.25
2022-10-17T13:25:08.531Z,23.39
2022-10-17T13:27:36.531Z,23.03
2022-10-17T13:30:21.096Z,23.26
2022-10-17T13:32:53.951Z,23.16
2022-10-17T13:36:01.873Z,23.25
2022-10-17T13:38:35.685Z,23.24
2022-10-17T13:41:34.304Z,23.39
2022-10-17T13:43:58.565Z,22.99
2022-10-17T13:46:37.903Z,22.92
2022-10-17T13:49:27.972Z,22.92
2022-10-17T13:51:56.297Z,22.94
2022-10-17T13:54:45.950Z,23.07
2022-10-17T13:57:28.473Z,23.09
2022-10-17T14:00:23.070Z,23.10
2022-10-17T14:02:49.583Z,22.89
2022-10-17T14:05:20.336Z,22.88
2022-10-17T14:08:21.700Z,23.12
2022-10-17T14:10:47.408Z,22.91
2022-10-17T14:13:31.167Z,22.97
2022-10-17T14:16:01.412Z,22.32
2022-10-17T14:18:35.891Z,22.52
2022-10-17T14:23:51.560Z,22.61
2022-10-17T14:26:22.846Z,22.70
2022-10-17T14:29:03.478Z,22.55
2022-10-17T14:31:33.087Z,22.24
2022-10-17T14:34:01.295Z,22.18
2022-10-17T14:36:40.107Z,22.15
2022-10-17T14:39:20.847Z,22.17
2022-10-17T14:41:50.471Z,22.02
2022-10-17T14:44:30.356Z,22.19
2022-10-17T14:47:38.091Z,22.02
2022-10-17T14:50:16.924Z,22.02
2022-10-17T14:53:02.929Z,21.94
2022-10-17T14:55:31.223Z,21.82
2022-10-17T14:57:58.506Z,21.97
2022-10-17T15:00:25.835Z,21.82
2022-10-17T15:02:54.261Z,21.77
2022-10-17T15:05:23.049Z,21.84
2022-10-17T15:07:49.456Z,21.70
2022-10-17T15:10:35.806Z,21.66
2022-10-17T15:13:27.055Z,21.61
2022-10-17T15:15:52.000Z,21.54
2022-10-17T15:18:18.771Z,21.29
2022-10-17T15:20:45.215Z,21.25
2022-10-17T15:23:11.662Z,20.92
2022-10-17T15:25:39.077Z,20.76
2022-10-17T15:28:05.603Z,20.45
2022-10-17T15:30:35.612Z,20.44
2022-10-17T15:33:02.034Z,20.38
2022-10-17T19:53:22.095Z,10.76
2022-10-17T19:55:52.569Z,10.83
2022-10-17T19:58:19.755Z,10.96
2022-10-17T20:00:51.799Z,11.09
2022-10-17T20:03:19.168Z,11.24
2022-10-17T20:05:45.845Z,10.93
2022-10-17T20:08:13.866Z,10.51
2022-10-17T20:10:41.214Z,10.54
2022-10-17T20:13:14.970Z,10.48
2022-10-17T20:15:41.406Z,10.36
2022-10-17T20:18:20.399Z,10.37
2022-10-17T20:20:46.787Z,10.33
2022-10-17T20:23:13.212Z,10.53
2022-10-17T20:25:39.733Z,10.27
2022-10-17T20:28:06.456Z,10.25
2022-10-17T20:30:34.121Z,9.92
2022-10-17T20:33:00.502Z,10.07
2022-10-17T20:35:26.925Z,9.94
2022-10-17T20:37:53.331Z,9.86
2022-10-17T20:40:35.955Z,10.04
2022-10-17T20:43:04.133Z,9.82
2022-10-17T20:45:44.226Z,9.88
2022-10-17T20:48:17.353Z,9.78
2022-10-17T20:50:44.329Z,9.58
2022-10-17T20:53:35.442Z,9.79
2022-10-17T20:56:07.455Z,9.81
2022-10-17T20:58:33.991Z,9.60
2022-10-17T21:01:06.507Z,9.78
2022-10-17T21:03:37.107Z,9.81
2022-10-17T21:06:05.424Z,9.69
2022-10-17T21:08:31.830Z,9.59
2022-10-17T21:11:08.425Z,9.67
2022-10-17T21:13:34.794Z,9.49
2022-10-17T21:16:09.611Z,9.37
2022-10-17T21:18:36.331Z,9.47
2022-10-17T21:21:18.190Z,9.41
2022-10-17T21:23:46.101Z,9.32
2022-10-17T21:26:13.449Z,9.51
2022-10-17T21:28:41.067Z,9.34
2022-10-17T21:31:13.901Z,9.26
2022-10-17T21:33:41.582Z,9.23
2022-10-17T21:36:08.884Z,9.37
2022-10-17T21:38:39.547Z,9.31
2022-10-17T21:41:07.951Z,9.27
2022-10-17T21:43:35.571Z,9.32
2022-10-17T21:46:07.346Z,9.32
2022-10-17T21:48:34.205Z,9.23
2022-10-17T21:51:05.237Z,9.29
2022-10-17T21:53:32.369Z,9.16
2022-10-17T21:56:00.726Z,9.04
2022-10-17T21:58:27.997Z,9.11
2022-10-17T22:01:02.523Z,9.00
2022-10-17T22:03:28.932Z,8.95
2022-10-17T22:06:06.836Z,8.96
2022-10-17T22:08:38.843Z,8.91
2022-10-17T22:11:13.406Z,8.82
2022-10-17T22:13:40.884Z,8.86
2022-10-17T22:16:13.430Z,9.01
2022-10-17T22:18:40.678Z,8.91
2022-10-17T22:21:10.963Z,9.01
2022-10-17T22:23:38.269Z,8.90
2022-10-17T22:26:05.923Z,8.89
2022-10-17T22:28:33.273Z,8.87
2022-10-17T22:30:59.771Z,8.64
2022-10-17T22:33:26.297Z,8.69
2022-10-17T22:35:52.735Z,8.75
2022-10-17T22:38:19.384Z,8.55
2022-10-17T22:40:46.450Z,8.72
2022-10-17T22:43:13.679Z,8.76
2022-10-17T22:45:40.377Z,8.76
2022-10-17T22:48:07.946Z,8.56
2022-10-17T22:50:34.495Z,8.59
2022-10-17T22:53:00.891Z,8.42
2022-10-17T22:55:27.537Z,8.43
2022-10-17T22:57:53.993Z,8.49
2022-10-17T23:00:20.605Z,8.50
2022-10-17T23:02:47.043Z,8.33
2022-10-17T23:05:13.612Z,8.36
2022-10-17T23:07:39.987Z,8.33
2022-10-17T23:10:06.772Z,8.22
2022-10-17T23:12:33.293Z,8.31
2022-10-17T23:14:59.902Z,8.12
2022-10-17T23:17:26.302Z,8.32
2022-10-17T23:19:57.713Z,8.40
2022-10-17T23:22:24.223Z,8.45
2022-10-17T23:24:50.648Z,8.31
2022-10-17T23:27:17.083Z,8.07
2022-10-17T23:29:43.550Z,8.19
2022-10-17T23:32:09.950Z,8.29
2022-10-17T23:34:36.366Z,8.27
2022-10-17T23:37:02.785Z,8.24
2022-10-17T23:39:29.153Z,8.30
2022-10-17T23:41:55.537Z,8.20
2022-10-17T23:44:23.427Z,8.09
2022-10-17T23:46:49.849Z,8.20
2022-10-17T23:49:16.205Z,8.50
2022-10-17T23:51:42.602Z,8.23
2022-10-17T23:54:11.052Z,8.22
2022-10-17T23:56:37.489Z,8.17
2022-10-17T23:59:03.965Z,7.67
